Time;durP1;ratioP1;P1;durP2;ratioP2;P2;SDS_P1;SDS_P2;PMS_P1;PMS_P2;Temp;Humidity;BMP_temperature;BMP_pressure;BME280_temperature;BME280_humidity;BME280_pressure;Samples;Min_cycle;Max_cycle;Signal;HPM_P1;HPM_P2
2022/10/21 00:02:01;;;;;;;;;;;;;;;;;;4997278;28;19914;-84
2022/10/21 00:04:28;;;;;;;;;;;;;;;;;;4979733;28;19925;-83
2022/10/21 00:06:54;;;;;;;;;;;;;;;;;;4955353;28;19961;-84
2022/10/21 00:09:20;;;;;;;;;;;;;;;;;;4967373;28;19953;-84
2022/10/21 00:11:46;;;;;;;;;;;;;;;;;;4985415;28;19973;-82
2022/10/21 00:14:12;;;;;;;;;;;;;;;;;;4982212;28;19957;-86
2022/10/21 00:16:39;;;;;;;;;;;;;;;;;;4985706;28;20049;-82
2022/10/21 00:19:05;;;;;;;;;;;;;;;;;;4988970;28;19968;-83
2022/10/21 00:21:31;;;;;;;;;;;;;;;;;;4992095;28;20388;-82
2022/10/21 00:23:57;;;;;;;;;;;;;;;;;;4981858;28;20352;-83
2022/10/21 00:26:23;;;;;;;;;;;;;;;;;;4993030;28;19924;-82
2022/10/21 00:28:50;;;;;;;;;;;;;;;;;;4997905;28;19918;-81
2022/10/21 00:31:16;;;;;;;;;;;;;;;;;;4996650;28;19925;-82
2022/10/21 00:33:42;;;;;;;;;;;;;;;;;;4981077;28;20227;-83
2022/10/21 00:36:13;;;;;;;;;;;;;;;;;;4999470;28;19918;-83
2022/10/21 00:38:39;;;;;;;;;;;;;;;;;;4982969;28;20022;-84
2022/10/21 00:41:05;;;;;;;;;;;;;;;;;;4976738;28;19930;-83
2022/10/21 00:43:32;;;;;;;;;;;;;;;;;;4992204;28;19917;-81
2022/10/21 00:45:58;;;;;;;;;;;;;;;;;;4979320;28;19914;-82
2022/10/21 00:48:24;;;;;;;;;;;;;;;;;;4976292;28;19918;-82
2022/10/21 00:50:50;;;;;;;;;;;;;;;;;;4991469;28;19964;-82
2022/10/21 00:53:17;;;;;;;;;;;;;;;;;;4982734;28;20025;-82
2022/10/21 00:55:43;;;;;;;;;;;;;;;;;;4972229;28;20313;-84
2022/10/21 00:58:09;;;;;;;;;;;;;;;;;;4989567;28;19953;-83
2022/10/21 01:00:38;;;;;;;;;;;;;;;;;;4968439;28;19921;-84
2022/10/21 01:03:04;;;;;;;;;;;;;;;;;;4961215;28;19952;-84
2022/10/21 01:05:30;;;;;;;;;;;;;;;;;;4986320;28;19969;-82
2022/10/21 01:07:57;;;;;;;;;;;;;;;;;;4990013;28;20041;-84
2022/10/21 01:10:23;;;;;;;;;;;;;;;;;;4989373;28;19957;-82
2022/10/21 01:12:49;;;;;;;;;;;;;;;;;;4988994;28;20329;-82
2022/10/21 01:15:15;;;;;;;;;;;;;;;;;;4972004;28;19953;-82
2022/10/21 01:17:41;;;;;;;;;;;;;;;;;;4988128;28;19949;-80
2022/10/21 01:20:08;;;;;;;;;;;;;;;;;;4994629;28;19968;-81
2022/10/21 01:22:35;;;;;;;;;;;;;;;;;;4967981;28;19937;-81
2022/10/21 01:25:01;;;;;;;;;;;;;;;;;;4989511;28;20005;-80
2022/10/21 01:27:27;;;;;;;;;;;;;;;;;;4988899;28;20397;-81
2022/10/21 01:29:53;;;;;;;;;;;;;;;;;;4986657;28;20541;-80
2022/10/21 01:32:19;;;;;;;;;;;;;;;;;;4987475;28;19957;-82
2022/10/21 01:34:46;;;;;;;;;;;;;;;;;;4987542;28;20389;-81
2022/10/21 01:37:12;;;;;;;;;;;;;;;;;;4988279;28;19918;-81
2022/10/21 01:39:38;;;;;;;;;;;;;;;;;;4985288;28;19953;-82
2022/10/21 01:42:04;;;;;;;;;;;;;;;;;;4974576;28;19957;-81
2022/10/21 01:44:30;;;;;;;;;;;;;;;;;;4968372;28;19975;-81
2022/10/21 01:46:56;;;;;;;;;;;;;;;;;;4987680;28;19964;-81
2022/10/21 01:49:23;;;;;;;;;;;;;;;;;;4973971;28;20305;-81
2022/10/21 01:51:49;;;;;;;;;;;;;;;;;;4982951;28;19918;-81
2022/10/21 01:54:15;;;;;;;;;;;;;;;;;;4982417;28;19969;-82
2022/10/21 01:56:41;;;;;;;;;;;;;;;;;;4959361;28;20527;-80
2022/10/21 01:59:08;;;;;;;;;;;;;;;;;;4972131;28;20416;-80
2022/10/21 02:01:34;;;;;;;;;;;;;;;;;;4967102;28;20337;-80
2022/10/21 02:04:00;;;;;;;;;;;;;;;;;;4987720;28;19917;-81
2022/10/21 02:06:26;;;;;;;;;;;;;;;;;;4983340;28;20709;-82
2022/10/21 02:08:52;;;;;;;;;;;;;;;;;;4985275;28;20600;-83
2022/10/21 02:11:18;;;;;;;;;;;;;;;;;;4986314;28;20045;-81
2022/10/21 02:13:45;;;;;;;;;;;;;;;;;;4984380;28;19969;-83
2022/10/21 02:16:11;;;;;;;;;;;;;;;;;;4971437;28;20416;-81
2022/10/21 02:18:37;;;;;;;;;;;;;;;;;;4986740;28;19922;-80
2022/10/21 02:21:03;;;;;;;;;;;;;;;;;;4987305;28;19964;-80
2022/10/21 02:23:29;;;;;;;;;;;;;;;;;;4985365;28;19957;-81
2022/10/21 02:25:56;;;;;;;;;;;;;;;;;;4988027;28;20406;-81
2022/10/21 02:28:22;;;;;;;;;;;;;;;;;;4991943;28;19965;-81
2022/10/21 02:30:48;;;;;;;;;;;;;;;;;;4990080;28;19973;-81
2022/10/21 02:33:16;;;;;;;;;;;;;;;;;;4979907;28;20357;-82
2022/10/21 02:35:42;;;;;;;;;;;;;;;;;;4974003;28;19956;-81
2022/10/21 02:38:08;;;;;;;;;;;;;;;;;;4974024;28;19965;-81
2022/10/21 02:40:34;;;;;;;;;;;;;;;;;;4964218;28;19918;-80
2022/10/21 02:43:00;;;;;;;;;;;;;;;;;;4995631;28;20385;-80
2022/10/21 02:45:27;;;;;;;;;;;;;;;;;;4964293;28;19925;-81
2022/10/21 02:47:53;;;;;;;;;;;;;;;;;;4981592;28;20345;-79
2022/10/21 02:50:19;;;;;;;;;;;;;;;;;;4999512;28;19934;-81
2022/10/21 02:52:45;;;;;;;;;;;;;;;;;;4997231;28;19925;-80
2022/10/21 02:55:11;;;;;;;;;;;;;;;;;;4983597;28;19945;-83
2022/10/21 02:57:38;;;;;;;;;;;;;;;;;;4972903;28;19941;-82
2022/10/21 03:00:04;;;;;;;;;;;;;;;;;;4982543;28;19941;-81
2022/10/21 03:02:30;;;;;;;;;;;;;;;;;;4986546;28;19918;-81
2022/10/21 03:04:56;;;;;;;;;;;;;;;;;;4990862;28;20496;-83
2022/10/21 03:07:22;;;;;;;;;;;;;;;;;;4974872;28;19960;-81
2022/10/21 03:09:49;;;;;;;;;;;;;;;;;;4989171;28;20041;-81
2022/10/21 03:12:15;;;;;;;;;;;;;;;;;;4988083;28;19991;-81
2022/10/21 03:14:41;;;;;;;;;;;;;;;;;;4990236;28;19961;-81
2022/10/21 03:17:07;;;;;;;;;;;;;;;;;;4990092;28;20353;-81
2022/10/21 03:19:33;;;;;;;;;;;;;;;;;;4985573;28;19925;-81
2022/10/21 03:21:59;;;;;;;;;;;;;;;;;;4975930;28;19968;-82
2022/10/21 03:24:26;;;;;;;;;;;;;;;;;;4987498;28;19945;-82
2022/10/21 03:26:52;;;;;;;;;;;;;;;;;;4981088;28;19958;-81
2022/10/21 03:29:18;;;;;;;;;;;;;;;;;;4970986;28;20337;-81
2022/10/21 03:31:44;;;;;;;;;;;;;;;;;;4988721;28;19925;-87
2022/10/21 03:34:10;;;;;;;;;;;;;;;;;;4989127;28;19922;-86
2022/10/21 03:36:37;;;;;;;;;;;;;;;;;;4971447;28;19961;-84
2022/10/21 03:39:03;;;;;;;;;;;;;;;;;;4978416;28;19976;-86
2022/10/21 03:41:29;;;;;;;;;;;;;;;;;;4988420;28;20021;-84
2022/10/21 03:43:55;;;;;;;;;;;;;;;;;;4971415;28;19985;-86
2022/10/21 03:46:21;;;;;;;;;;;;;;;;;;4972043;28;20464;-86
2022/10/21 03:48:48;;;;;;;;;;;;;;;;;;4973355;28;20045;-86
2022/10/21 03:51:14;;;;;;;;;;;;;;;;;;4970319;28;20370;-83
2022/10/21 03:53:40;;;;;;;;;;;;;;;;;;4983804;28;19973;-84
2022/10/21 03:56:06;;;;;;;;;;;;;;;;;;4987253;28;19949;-82
2022/10/21 03:58:34;;;;;;;;;;;;;;;;;;4988255;28;20010;-84
2022/10/21 04:01:00;;;;;;;;;;;;;;;;;;4958687;28;19921;-82
2022/10/21 04:03:26;;;;;;;;;;;;;;;;;;4970214;28;19969;-81
2022/10/21 04:05:54;;;;;;;;;;;;;;;;;;4985042;28;21696;-81
2022/10/21 04:08:20;;;;;;;;;;;;;;;;;;4987647;28;20056;-85
2022/10/21 04:10:46;;;;;;;;;;;;;;;;;;4967639;28;20310;-84
2022/10/21 04:13:15;;;;;;;;;;;;;;;;;;4970862;28;19946;-85
2022/10/21 04:15:41;;;;;;;;;;;;;;;;;;4971586;28;19929;-82
2022/10/21 04:18:08;;;;;;;;;;;;;;;;;;4986978;28;20334;-86
2022/10/21 04:20:34;;;;;;;;;;;;;;;;;;4971120;28;20473;-86
2022/10/21 04:23:00;;;;;;;;;;;;;;;;;;4986068;28;19960;-86
2022/10/21 04:25:26;;;;;;;;;;;;;;;;;;4971871;28;19961;-86
2022/10/21 04:27:52;;;;;;;;;;;;;;;;;;4970851;28;19964;-87
2022/10/21 04:30:19;;;;;;;;;;;;;;;;;;4971277;28;19977;-86
2022/10/21 04:32:46;;;;;;;;;;;;;;;;;;4987649;28;20386;-86
2022/10/21 04:35:12;;;;;;;;;;;;;;;;;;4972710;28;19950;-85
2022/10/21 04:37:39;;;;;;;;;;;;;;;;;;4971855;28;19926;-89
2022/10/21 04:40:05;;;;;;;;;;;;;;;;;;4994530;28;19967;-88
2022/10/21 04:42:31;;;;;;;;;;;;;;;;;;4986624;28;19964;-87
2022/10/21 04:44:57;;;;;;;;;;;;;;;;;;4970215;28;19945;-88
2022/10/21 04:47:23;;;;;;;;;;;;;;;;;;4985967;28;19976;-86
2022/10/21 04:49:49;;;;;;;;;;;;;;;;;;4964814;28;19926;-88
2022/10/21 04:52:16;;;;;;;;;;;;;;;;;;4954428;28;20056;-88
2022/10/21 04:54:42;;;;;;;;;;;;;;;;;;4981811;28;19918;-89
2022/10/21 04:57:08;;;;;;;;;;;;;;;;;;4991046;28;20444;-88
2022/10/21 04:59:34;;;;;;;;;;;;;;;;;;4972956;28;19984;-88
2022/10/21 05:02:00;;;;;;;;;;;;;;;;;;4991577;28;19940;-90
2022/10/21 05:04:27;;;;;;;;;;;;;;;;;;4990864;28;19965;-90
2022/10/21 05:06:53;;;;;;;;;;;;;;;;;;4975426;28;19956;-88
2022/10/21 05:09:19;;;;;;;;;;;;;;;;;;4975891;28;19925;-88
2022/10/21 05:11:45;;;;;;;;;;;;;;;;;;4996446;28;19918;-88
2022/10/21 05:14:11;;;;;;;;;;;;;;;;;;5002851;28;19938;-88
2022/10/21 05:16:38;;;;;;;;;;;;;;;;;;4973983;28;20329;-88
2022/10/21 05:19:04;;;;;;;;;;;;;;;;;;4989940;28;19961;-88
2022/10/21 05:21:30;;;;;;;;;;;;;;;;;;4990061;28;19953;-87
2022/10/21 05:23:56;;;;;;;;;;;;;;;;;;4957848;28;19980;-88
2022/10/21 05:26:23;;;;;;;;;;;;;;;;;;4994167;28;20494;-87
2022/10/21 05:28:49;;;;;;;;;;;;;;;;;;4994489;28;19926;-88
2022/10/21 05:31:15;;;;;;;;;;;;;;;;;;4988551;28;19991;-86
2022/10/21 05:33:41;;;;;;;;;;;;;;;;;;4952264;28;19925;-88
2022/10/21 05:36:08;;;;;;;;;;;;;;;;;;4965405;28;19949;-86
2022/10/21 05:38:34;;;;;;;;;;;;;;;;;;4977830;28;19934;-87
2022/10/21 05:41:00;;;;;;;;;;;;;;;;;;4986775;28;20077;-89
2022/10/21 05:43:29;;;;;;;;;;;;;;;;;;4971673;28;19992;-88
2022/10/21 05:45:56;;;;;;;;;;;;;;;;;;4968147;28;20055;-88
2022/10/21 05:48:22;;;;;;;;;;;;;;;;;;4952134;28;19981;-89
2022/10/21 05:50:48;;;;;;;;;;;;;;;;;;4967870;28;19972;-90
2022/10/21 05:53:14;;;;;;;;;;;;;;;;;;4969977;28;19957;-90
2022/10/21 05:55:40;;;;;;;;;;;;;;;;;;4986459;28;19972;-89
2022/10/21 05:58:07;;;;;;;;;;;;;;;;;;4987518;28;20691;-89
2022/10/21 06:00:33;;;;;;;;;;;;;;;;;;4955516;28;19954;-88
2022/10/21 06:02:59;;;;;;;;;;;;;;;;;;4989210;28;19922;-88
2022/10/21 06:05:25;;;;;;;;;;;;;;;;;;4990392;28;19964;-88
2022/10/21 06:07:51;;;;;;;;;;;;;;;;;;4984906;28;19952;-86
2022/10/21 06:10:18;;;;;;;;;;;;;;;;;;4991476;28;19933;-86
2022/10/21 06:12:44;;;;;;;;;;;;;;;;;;4970378;28;19957;-84
2022/10/21 06:15:10;;;;;;;;;;;;;;;;;;4990637;28;19918;-85
2022/10/21 06:17:36;;;;;;;;;;;;;;;;;;4952921;28;19957;-85
2022/10/21 06:20:02;;;;;;;;;;;;;;;;;;4994989;28;19949;-84
2022/10/21 06:22:28;;;;;;;;;;;;;;;;;;4989586;28;19957;-83
2022/10/21 06:24:55;;;;;;;;;;;;;;;;;;4975895;28;19957;-88
2022/10/21 06:27:21;;;;;;;;;;;;;;;;;;4987549;28;19937;-86
2022/10/21 06:29:47;;;;;;;;;;;;;;;;;;4990132;28;19985;-90
2022/10/21 06:32:13;;;;;;;;;;;;;;;;;;4989088;28;19925;-83
2022/10/21 06:34:39;;;;;;;;;;;;;;;;;;4986852;28;19949;-81
2022/10/21 06:37:06;;;;;;;;;;;;;;;;;;4986211;28;19945;-80
2022/10/21 06:39:32;;;;;;;;;;;;;;;;;;4967227;28;19921;-80
2022/10/21 06:41:58;;;;;;;;;;;;;;;;;;4988128;28;19976;-81
2022/10/21 06:44:24;;;;;;;;;;;;;;;;;;4986385;28;19950;-80
2022/10/21 06:46:52;;;;;;;;;;;;;;;;;;4990008;28;19953;-80
2022/10/21 06:49:19;;;;;;;;;;;;;;;;;;4988327;28;20702;-81
2022/10/21 06:51:45;;;;;;;;;;;;;;;;;;4987900;28;19968;-80
2022/10/21 06:54:11;;;;;;;;;;;;;;;;;;4986693;28;19968;-81
2022/10/21 06:56:37;;;;;;;;;;;;;;;;;;4987734;28;19956;-80
2022/10/21 06:59:03;;;;;;;;;;;;;;;;;;4989806;28;20385;-80
2022/10/21 07:01:31;;;;;;;;;;;;;;;;;;4988220;28;19953;-79
2022/10/21 07:03:58;;;;;;;;;;;;;;;;;;4974137;28;19928;-79
2022/10/21 07:06:27;;;;;;;;;;;;;;;;;;4988661;28;19926;-79
2022/10/21 07:08:53;;;;;;;;;;;;;;;;;;4993428;28;19922;-79
2022/10/21 07:11:19;;;;;;;;;;;;;;;;;;4988118;28;19984;-79
2022/10/21 07:13:46;;;;;;;;;;;;;;;;;;4989990;28;20310;-81
2022/10/21 07:16:12;;;;;;;;;;;;;;;;;;4974718;28;19922;-80
2022/10/21 07:18:38;;;;;;;;;;;;;;;;;;4974342;28;19958;-80
2022/10/21 07:21:04;;;;;;;;;;;;;;;;;;4971688;28;19961;-79
2022/10/21 07:23:30;;;;;;;;;;;;;;;;;;4986058;28;19953;-81
2022/10/21 07:25:57;;;;;;;;;;;;;;;;;;4971443;28;20020;-81
2022/10/21 07:28:23;;;;;;;;;;;;;;;;;;4970245;28;19977;-79
2022/10/21 07:30:49;;;;;;;;;;;;;;;;;;4956970;28;20455;-79
2022/10/21 07:33:15;;;;;;;;;;;;;;;;;;4986673;28;19965;-80
2022/10/21 07:35:41;;;;;;;;;;;;;;;;;;4986334;28;20488;-78
2022/10/21 07:38:08;;;;;;;;;;;;;;;;;;4987088;28;19960;-81
2022/10/21 07:40:34;;;;;;;;;;;;;;;;;;4986056;28;19953;-79
2022/10/21 07:43:00;;;;;;;;;;;;;;;;;;4971002;28;19913;-79
2022/10/21 07:45:26;;;;;;;;;;;;;;;;;;4983697;28;19949;-80
2022/10/21 07:47:52;;;;;;;;;;;;;;;;;;4987237;28;19954;-80
2022/10/21 07:50:18;;;;;;;;;;;;;;;;;;4971060;28;19968;-81
2022/10/21 07:52:45;;;;;;;;;;;;;;;;;;4960723;28;19965;-80
2022/10/21 07:55:11;;;;;;;;;;;;;;;;;;4983814;28;19972;-80
2022/10/21 07:57:37;;;;;;;;;;;;;;;;;;4985084;28;20033;-80
2022/10/21 08:00:03;;;;;;;;;;;;;;;;;;4968035;28;19922;-80
2022/10/21 08:02:29;;;;;;;;;;;;;;;;;;4983283;28;19953;-79
2022/10/21 08:04:56;;;;;;;;;;;;;;;;;;4984593;28;20043;-78
2022/10/21 08:07:22;;;;;;;;;;;;;;;;;;4983068;28;19987;-79
2022/10/21 08:09:48;;;;;;;;;;;;;;;;;;4971723;28;21505;-78
2022/10/21 08:12:14;;;;;;;;;;;;;;;;;;4991088;28;19957;-79
2022/10/21 08:14:40;;;;;;;;;;;;;;;;;;4986576;28;19949;-79
2022/10/21 08:17:07;;;;;;;;;;;;;;;;;;4967517;28;20632;-80
2022/10/21 08:19:33;;;;;;;;;;;;;;;;;;4982964;28;20390;-79
2022/10/21 08:21:59;;;;;;;;;;;;;;;;;;4987024;28;19972;-79
2022/10/21 08:24:26;;;;;;;;;;;;;;;;;;4973291;28;20457;-80
2022/10/21 08:26:53;;;;;;;;;;;;;;;;;;4969247;28;19977;-78
2022/10/21 08:29:19;;;;;;;;;;;;;;;;;;4973365;28;19968;-78
2022/10/21 08:31:45;;;;;;;;;;;;;;;;;;4985925;28;19930;-79
2022/10/21 08:34:11;;;;;;;;;;;;;;;;;;4985693;28;19976;-79
2022/10/21 08:36:37;;;;;;;;;;;;;;;;;;4972774;28;19951;-79
2022/10/21 08:39:04;;;;;;;;;;;;;;;;;;4971950;28;19972;-79
2022/10/21 08:41:30;;;;;;;;;;;;;;;;;;4985915;28;19961;-79
2022/10/21 08:43:57;;;;;;;;;;;;;;;;;;4970343;28;19976;-79
2022/10/21 08:46:24;;;;;;;;;;;;;;;;;;4989214;28;19925;-78
2022/10/21 08:48:50;;;;;;;;;;;;;;;;;;4984310;28;19964;-80
2022/10/21 08:51:16;;;;;;;;;;;;;;;;;;4987460;28;19972;-79
2022/10/21 08:53:42;;;;;;;;;;;;;;;;;;4968284;28;20377;-78
2022/10/21 08:56:08;;;;;;;;;;;;;;;;;;4970737;28;19973;-79
2022/10/21 08:58:35;;;;;;;;;;;;;;;;;;4982429;28;20424;-78
2022/10/21 09:01:01;;;;;;;;;;;;;;;;;;4980428;28;19957;-83
2022/10/21 09:03:27;;;;;;;;;;;;;;;;;;4986162;28;19972;-78
2022/10/21 09:05:53;;;;;;;;;;;;;;;;;;4968061;28;19997;-79
2022/10/21 09:08:20;;;;;;;;;;;;;;;;;;4985794;28;20342;-80
2022/10/21 09:10:46;;;;;;;;;;;;;;;;;;4985529;28;20020;-79
2022/10/21 09:13:12;;;;;;;;;;;;;;;;;;4971078;28;19921;-80
2022/10/21 09:15:38;;;;;;;;;;;;;;;;;;4979426;28;19922;-79
2022/10/21 09:18:05;;;;;;;;;;;;;;;;;;4966280;28;20385;-79
2022/10/21 09:20:31;;;;;;;;;;;;;;;;;;4967158;28;20429;-78
2022/10/21 09:22:57;;;;;;;;;;;;;;;;;;4987506;28;19961;-80
2022/10/21 09:25:25;;;;;;;;;;;;;;;;;;4986392;28;19969;-80
2022/10/21 09:27:52;;;;;;;;;;;;;;;;;;4968274;28;19974;-80
2022/10/21 09:30:19;;;;;;;;;;;;;;;;;;4983664;28;19969;-80
2022/10/21 09:32:48;;;;;;;;;;;;;;;;;;4985973;28;19968;-79
2022/10/21 09:35:14;;;;;;;;;;;;;;;;;;4985875;28;19949;-80
2022/10/21 09:37:41;;;;;;;;;;;;;;;;;;4985460;28;20083;-80
2022/10/21 09:40:07;;;;;;;;;;;;;;;;;;4971506;28;20382;-80
2022/10/21 09:42:33;;;;;;;;;;;;;;;;;;4984790;28;19965;-79
2022/10/21 09:44:59;;;;;;;;;;;;;;;;;;4990940;28;19957;-79
2022/10/21 09:47:25;;;;;;;;;;;;;;;;;;4991311;28;19944;-79
2022/10/21 09:49:51;;;;;;;;;;;;;;;;;;4986547;28;19956;-79
2022/10/21 09:52:18;;;;;;;;;;;;;;;;;;4959514;28;19929;-80
2022/10/21 09:54:44;;;;;;;;;;;;;;;;;;4987015;28;20622;-79
2022/10/21 09:57:10;;;;;;;;;;;;;;;;;;4956787;28;19960;-81
2022/10/21 09:59:36;;;;;;;;;;;;;;;;;;4969276;28;19961;-79
2022/10/21 10:02:02;;;;;;;;;;;;;;;;;;4974617;28;19922;-80
2022/10/21 10:04:29;;;;;;;;;;;;;;;;;;4984330;28;20037;-81
2022/10/21 10:06:55;;;;;;;;;;;;;;;;;;4987811;28;21659;-80
2022/10/21 10:09:21;;;;;;;;;;;;;;;;;;4972498;28;19944;-80
2022/10/21 10:11:47;;;;;;;;;;;;;;;;;;4980245;28;19976;-81
2022/10/21 10:14:14;;;;;;;;;;;;;;;;;;4969783;28;19957;-80
2022/10/21 10:16:40;;;;;;;;;;;;;;;;;;4978082;28;19965;-79
2022/10/21 10:19:06;;;;;;;;;;;;;;;;;;4996649;28;19957;-80
2022/10/21 10:21:32;;;;;;;;;;;;;;;;;;4974036;28;19984;-80
2022/10/21 10:23:58;;;;;;;;;;;;;;;;;;4996456;28;20917;-80
2022/10/21 10:26:25;;;;;;;;;;;;;;;;;;4978935;28;19960;-81
2022/10/21 10:28:51;;;;;;;;;;;;;;;;;;4969721;28;20057;-81
2022/10/21 10:31:17;;;;;;;;;;;;;;;;;;4970247;28;20389;-80
2022/10/21 10:33:43;;;;;;;;;;;;;;;;;;4984744;28;19930;-81
2022/10/21 10:36:09;;;;;;;;;;;;;;;;;;4985514;28;20376;-82
2022/10/21 10:38:35;;;;;;;;;;;;;;;;;;4957037;28;19960;-80
2022/10/21 10:41:02;;;;;;;;;;;;;;;;;;4985933;28;19968;-80
2022/10/21 10:43:28;;;;;;;;;;;;;;;;;;4970129;28;19953;-82
2022/10/21 10:45:54;;;;;;;;;;;;;;;;;;4986323;28;19983;-83
2022/10/21 10:48:20;;;;;;;;;;;;;;;;;;4988256;28;19964;-84
2022/10/21 10:50:47;;;;;;;;;;;;;;;;;;4982945;28;20373;-82
2022/10/21 10:53:16;;;;;;;;;;;;;;;;;;4985736;28;19964;-83
2022/10/21 10:55:42;;;;;;;;;;;;;;;;;;4983893;28;19953;-82
2022/10/21 10:58:08;;;;;;;;;;;;;;;;;;4973144;28;19980;-83
2022/10/21 11:00:35;;;;;;;;;;;;;;;;;;4988672;28;20519;-79
2022/10/21 11:03:01;;;;;;;;;;;;;;;;;;4988045;28;20053;-83
2022/10/21 11:05:27;;;;;;;;;;;;;;;;;;4987267;28;19949;-82
2022/10/21 11:07:54;;;;;;;;;;;;;;;;;;4987165;28;20009;-82
2022/10/21 11:10:20;;;;;;;;;;;;;;;;;;4964128;28;19962;-79
2022/10/21 11:12:46;;;;;;;;;;;;;;;;;;4984137;28;20314;-76
2022/10/21 11:15:12;;;;;;;;;;;;;;;;;;4987804;28;19960;-76
2022/10/21 11:17:40;;;;;;;;;;;;;;;;;;4988303;28;20329;-76
2022/10/21 11:20:06;;;;;;;;;;;;;;;;;;4989601;28;19963;-76
2022/10/21 11:22:32;;;;;;;;;;;;;;;;;;4987345;28;19926;-76
2022/10/21 11:24:58;;;;;;;;;;;;;;;;;;4988491;28;20449;-77
2022/10/21 11:27:25;;;;;;;;;;;;;;;;;;4985031;28;19960;-78
2022/10/21 11:29:51;;;;;;;;;;;;;;;;;;4968410;28;19956;-77
2022/10/21 11:32:17;;;;;;;;;;;;;;;;;;4992129;28;20409;-76
2022/10/21 11:34:43;;;;;;;;;;;;;;;;;;4987679;28;19946;-76
2022/10/21 11:37:09;;;;;;;;;;;;;;;;;;4971601;28;20362;-76
2022/10/21 11:39:36;;;;;;;;;;;;;;;;;;4982671;28;19953;-76
2022/10/21 11:42:02;;;;;;;;;;;;;;;;;;4986163;28;19961;-76
2022/10/21 11:44:28;;;;;;;;;;;;;;;;;;4977881;28;19945;-77
2022/10/21 11:46:54;;;;;;;;;;;;;;;;;;4985696;28;19976;-76
2022/10/21 11:49:20;;;;;;;;;;;;;;;;;;4978678;28;19964;-76
2022/10/21 11:51:47;;;;;;;;;;;;;;;;;;4959617;28;19973;-76
2022/10/21 11:54:13;;;;;;;;;;;;;;;;;;4987059;28;19952;-76
2022/10/21 11:56:39;;;;;;;;;;;;;;;;;;4968761;28;19945;-76
2022/10/21 11:59:05;;;;;;;;;;;;;;;;;;4986972;28;19949;-76
2022/10/21 12:01:31;;;;;;;;;;;;;;;;;;4985824;28;19922;-75
2022/10/21 12:03:57;;;;;;;;;;;;;;;;;;4990987;28;20515;-76
2022/10/21 12:06:24;;;;;;;;;;;;;;;;;;4987725;28;20006;-77
2022/10/21 12:08:50;;;;;;;;;;;;;;;;;;4987312;28;19981;-76
2022/10/21 12:11:16;;;;;;;;;;;;;;;;;;4969181;28;20049;-76
2022/10/21 12:13:42;;;;;;;;;;;;;;;;;;4973579;28;19957;-78
2022/10/21 12:16:09;;;;;;;;;;;;;;;;;;4987989;28;19941;-76
2022/10/21 12:18:35;;;;;;;;;;;;;;;;;;4970158;28;19921;-76
2022/10/21 12:21:01;;;;;;;;;;;;;;;;;;4988180;28;20293;-76
2022/10/21 12:23:27;;;;;;;;;;;;;;;;;;4987541;28;19968;-76
2022/10/21 12:25:54;;;;;;;;;;;;;;;;;;4967762;28;19945;-76
2022/10/21 12:28:20;;;;;;;;;;;;;;;;;;4975384;28;20273;-77
2022/10/21 12:30:46;;;;;;;;;;;;;;;;;;4969918;28;19979;-77
2022/10/21 12:33:13;;;;;;;;;;;;;;;;;;4971396;28;19956;-77
2022/10/21 12:35:39;;;;;;;;;;;;;;;;;;4985341;28;19957;-76
2022/10/21 12:38:05;;;;;;;;;;;;;;;;;;4967850;28;19972;-77
2022/10/21 12:40:32;;;;;;;;;;;;;;;;;;4984653;28;20409;-77
2022/10/21 12:42:58;;;;;;;;;;;;;;;;;;4987791;28;19957;-77
2022/10/21 12:45:24;;;;;;;;;;;;;;;;;;4986084;28;19996;-77
2022/10/21 12:47:50;;;;;;;;;;;;;;;;;;4984966;28;19975;-77
2022/10/21 12:50:17;;;;;;;;;;;;;;;;;;4986187;28;19991;-76
2022/10/21 12:52:43;;;;;;;;;;;;;;;;;;4988038;28;19975;-77
2022/10/21 12:55:10;;;;;;;;;;;;;;;;;;4986059;28;20010;-78
2022/10/21 12:57:36;;;;;;;;;;;;;;;;;;4955060;28;20027;-76
2022/10/21 13:00:02;;;;;;;;;;;;;;;;;;4985089;28;20048;-76
2022/10/21 13:02:28;;;;;;;;;;;;;;;;;;4981833;28;20378;-77
2022/10/21 13:04:55;;;;;;;;;;;;;;;;;;4959216;28;19921;-77
2022/10/21 13:07:21;;;;;;;;;;;;;;;;;;4970889;28;19949;-77
2022/10/21 13:09:47;;;;;;;;;;;;;;;;;;4983717;28;20334;-75
2022/10/21 13:12:13;;;;;;;;;;;;;;;;;;4966148;28;20001;-76
2022/10/21 13:14:40;;;;;;;;;;;;;;;;;;4959217;28;20010;-76
2022/10/21 13:17:06;;;;;;;;;;;;;;;;;;4966634;28;19956;-76
2022/10/21 13:19:33;;;;;;;;;;;;;;;;;;4971882;28;19957;-76
2022/10/21 13:21:59;;;;;;;;;;;;;;;;;;4969073;28;19968;-76
2022/10/21 13:24:25;;;;;;;;;;;;;;;;;;4951565;28;20322;-77
2022/10/21 13:26:51;;;;;;;;;;;;;;;;;;4978440;28;19972;-77
2022/10/21 13:29:18;;;;;;;;;;;;;;;;;;4985807;28;19953;-76
2022/10/21 13:31:44;;;;;;;;;;;;;;;;;;4983464;28;19961;-77
2022/10/21 13:34:10;;;;;;;;;;;;;;;;;;4985631;28;19954;-77
2022/10/21 13:36:38;;;;;;;;;;;;;;;;;;4982310;28;19945;-77
2022/10/21 13:39:04;;;;;;;;;;;;;;;;;;4953497;28;19918;-77
2022/10/21 13:41:30;;;;;;;;;;;;;;;;;;4980341;28;19982;-75
2022/10/21 13:43:56;;;;;;;;;;;;;;;;;;4982103;28;19944;-77
2022/10/21 13:46:22;;;;;;;;;;;;;;;;;;4953128;28;19972;-77
2022/10/21 13:48:49;;;;;;;;;;;;;;;;;;4972283;28;19952;-76
2022/10/21 13:51:15;;;;;;;;;;;;;;;;;;4987227;28;19930;-76
2022/10/21 13:53:44;;;;;;;;;;;;;;;;;;4991926;28;19953;-76
2022/10/21 13:56:10;;;;;;;;;;;;;;;;;;4987386;28;19965;-77
2022/10/21 13:58:39;;;;;;;;;;;;;;;;;;4985553;28;20298;-76
2022/10/21 14:01:05;;;;;;;;;;;;;;;;;;4967522;28;20055;-76
2022/10/21 14:03:31;;;;;;;;;;;;;;;;;;4977420;28;20405;-75
2022/10/21 14:06:01;;;;;;;;;;;;;;;;;;4972599;28;19961;-76
2022/10/21 14:08:27;;;;;;;;;;;;;;;;;;4985915;28;19968;-76
2022/10/21 14:10:54;;;;;;;;;;;;;;;;;;4967320;28;20141;-76
2022/10/21 14:13:21;;;;;;;;;;;;;;;;;;4969367;28;20363;-76
2022/10/21 14:15:48;;;;;;;;;;;;;;;;;;4983872;28;19964;-77
2022/10/21 14:18:14;;;;;;;;;;;;;;;;;;4987688;28;19992;-76
2022/10/21 14:20:40;;;;;;;;;;;;;;;;;;4966911;28;20326;-77
2022/10/21 14:23:06;;;;;;;;;;;;;;;;;;4970966;28;19961;-76
2022/10/21 14:25:32;;;;;;;;;;;;;;;;;;4988071;28;19992;-75
2022/10/21 14:27:59;;;;;;;;;;;;;;;;;;4971588;28;19961;-76
2022/10/21 14:30:25;;;;;;;;;;;;;;;;;;4972254;28;19997;-77
2022/10/21 14:32:51;;;;;;;;;;;;;;;;;;4958786;28;19992;-77
2022/10/21 14:35:17;;;;;;;;;;;;;;;;;;4971957;28;19961;-76
2022/10/21 14:37:43;;;;;;;;;;;;;;;;;;4989155;28;20342;-76
2022/10/21 14:40:10;;;;;;;;;;;;;;;;;;4988767;28;20386;-76
2022/10/21 14:42:36;;;;;;;;;;;;;;;;;;4969093;28;20020;-76
2022/10/21 14:45:02;;;;;;;;;;;;;;;;;;4971763;28;19973;-76
2022/10/21 14:47:29;;;;;;;;;;;;;;;;;;4985889;28;20370;-76
2022/10/21 14:49:55;;;;;;;;;;;;;;;;;;4970944;28;19918;-76
2022/10/21 14:52:21;;;;;;;;;;;;;;;;;;4972156;28;20397;-76
2022/10/21 14:54:47;;;;;;;;;;;;;;;;;;4981839;28;19961;-77
2022/10/21 14:57:13;;;;;;;;;;;;;;;;;;4989809;28;19941;-76
2022/10/21 14:59:40;;;;;;;;;;;;;;;;;;4954375;28;20357;-76
2022/10/21 15:02:06;;;;;;;;;;;;;;;;;;4965157;28;19992;-76
2022/10/21 15:04:32;;;;;;;;;;;;;;;;;;4969328;28;19953;-76
2022/10/21 15:07:01;;;;;;;;;;;;;;;;;;4967655;28;20536;-77
2022/10/21 15:09:27;;;;;;;;;;;;;;;;;;4983482;28;19957;-77
2022/10/21 15:11:53;;;;;;;;;;;;;;;;;;4988107;28;20035;-77
2022/10/21 15:14:20;;;;;;;;;;;;;;;;;;4972213;28;19913;-76
2022/10/21 15:16:46;;;;;;;;;;;;;;;;;;4989087;28;19917;-76
2022/10/21 15:19:12;;;;;;;;;;;;;;;;;;4983065;28;19956;-76
2022/10/21 15:21:39;;;;;;;;;;;;;;;;;;4987152;28;19957;-76
2022/10/21 15:24:05;;;;;;;;;;;;;;;;;;4987671;28;19918;-77
2022/10/21 15:26:31;;;;;;;;;;;;;;;;;;4987099;28;19968;-76
2022/10/21 15:28:57;;;;;;;;;;;;;;;;;;4977617;28;20047;-77
2022/10/21 15:31:23;;;;;;;;;;;;;;;;;;4973941;28;19953;-77
2022/10/21 15:33:50;;;;;;;;;;;;;;;;;;4974729;28;20411;-77
2022/10/21 15:36:17;;;;;;;;;;;;;;;;;;4954362;28;19968;-76
2022/10/21 15:38:45;;;;;;;;;;;;;;;;;;4985922;28;19968;-76
2022/10/21 15:41:11;;;;;;;;;;;;;;;;;;4985817;28;19949;-76
2022/10/21 15:43:38;;;;;;;;;;;;;;;;;;4990753;28;19921;-76
2022/10/21 15:46:04;;;;;;;;;;;;;;;;;;4989485;28;19961;-76
2022/10/21 15:48:30;;;;;;;;;;;;;;;;;;4987663;28;20377;-77
2022/10/21 15:50:56;;;;;;;;;;;;;;;;;;4987546;28;19973;-77
2022/10/21 15:53:23;;;;;;;;;;;;;;;;;;4988295;28;19964;-77
2022/10/21 15:55:49;;;;;;;;;;;;;;;;;;4988232;28;19926;-77
2022/10/21 15:58:15;;;;;;;;;;;;;;;;;;4987783;28;19922;-77
2022/10/21 16:00:41;;;;;;;;;;;;;;;;;;4987382;28;19976;-77
2022/10/21 16:03:07;;;;;;;;;;;;;;;;;;4968085;28;19961;-77
2022/10/21 16:05:34;;;;;;;;;;;;;;;;;;4965359;28;20091;-77
2022/10/21 16:08:00;;;;;;;;;;;;;;;;;;4970093;28;19953;-77
2022/10/21 16:10:26;;;;;;;;;;;;;;;;;;4996624;28;19961;-77
2022/10/21 16:12:52;;;;;;;;;;;;;;;;;;4979317;28;19950;-76
2022/10/21 16:15:18;;;;;;;;;;;;;;;;;;4986974;28;19961;-76
2022/10/21 16:17:45;;;;;;;;;;;;;;;;;;4987513;28;20151;-76
2022/10/21 16:20:11;;;;;;;;;;;;;;;;;;4970995;28;20378;-77
2022/10/21 16:22:37;;;;;;;;;;;;;;;;;;4985679;28;19968;-76
2022/10/21 16:25:03;;;;;;;;;;;;;;;;;;4970422;28;20011;-79
2022/10/21 16:27:29;;;;;;;;;;;;;;;;;;4987630;28;19973;-77
2022/10/21 16:29:56;;;;;;;;;;;;;;;;;;4967755;28;20771;-78
2022/10/21 16:32:22;;;;;;;;;;;;;;;;;;4979668;28;19969;-77
2022/10/21 16:34:48;;;;;;;;;;;;;;;;;;4981057;28;19926;-77
2022/10/21 16:37:14;;;;;;;;;;;;;;;;;;4968849;28;19922;-77
2022/10/21 16:39:40;;;;;;;;;;;;;;;;;;4980887;28;20369;-77